Pagrindinis puslapis
METAR-TAF:

METAR-TAF

Oro uostai :

Lechfeld, Vokietija

platuma: 48-11N, ilguma: 010-52E, Aukštis: 555 m

Dabartinis oras

Ataskaita buvo paskelbta 33 minutes, ne 11:20 UTC
Vėjas 8 kt iš Šiaurės Rytų su gūsio iki 19 kt
Temperatūra 15°C
Drėgmė 55%
Slėgis 1025 hPa
Matomumas: 7000 m

METAR: ETSL 291120Z AUTO 05008G19KT 7000 // ////// 15/06 Q1025 ///

Laikas: 13:53 (11:53 UTC)

Prognozė

Ataskaita buvo paskelbta 4 valandos ir 33 minutes, ne 07:20 UTC
Prognozė galioja nuo 29 metu 08 UTC su 29 metu 17 UTC
Vėjas 12 kt iš Šiaurės Rytų
Matomumas 10 km arba daugiau
Mažai debesys ne aukštis 4000 ft

TAF: ETSL 290720Z 2908/2917 05012KT 9999 NSW FEW040 BY ETGL

Orai ataskaitas ir orų prognozės (METAR, TAF).

turimą stotys yra geltonos ir raudonos taškus žemėlapyje.

Perkelti pele per norėdami pamatyti stoties vardą.

Tada spustelėkite, norėdami matyti oro stebėjimo ir prognozės.

Norėdami pakeisti žemėlapį: spustelėkite ant žalios mygtukų su juodo kryžiaus žemyn,; žalią mygtuką su brūkšneliu, jei norite nutolinti; arba žalių rodyklių gretimoms žemėlapius.


METAR-TAF: